Marlin V — 3EYO3 — position and weather

sailwx.info

Track history (hours):
 
Tides and Currents Weather Stations Pressure Air Temp Water Temp Dewpoint Dewpoint Depression Visibility Wind Speed Wind Dir Waves Ship Positions

Marlin V

Last reported at 2017-Sep-02 02:48 UTC. Time now 2017-Sep-19 22:40 UTC.
Position N 16°18' W 062°43'.
Warning: this ship's position is 17 days out of date.

Length 199 m; draft 9.6 m.

Type: Cargo ship. MMSI: 357658000.

Date/timePositionNaut miles runAvg speedWind from/ knotsBaromVisibWave heightAir tempDewpointWater temp
2017-Sep-02 02:48N 16°18' W 062°43'412.8
2017-Sep-02 02:30N 16°19' W 062°39'612.7
2017-Sep-02 02:00N 16°22' W 062°33'713.2
2017-Sep-02 01:30N 16°24' W 062°27'813.4
2017-Sep-02 00:53N 16°27' W 062°19'613.2
2017-Sep-02 00:27N 16°30' W 062°13'613.0
2017-Sep-02 00:00N 16°32' W 062°08'612.9
2017-Sep-01 23:30N 16°34' W 062°02'612.8
2017-Sep-01 23:00N 16°37' W 061°55'612.7
2017-Sep-01 22:30N 16°39' W 061°49'612.4
2017-Sep-01 22:00N 16°41' W 061°43'612.4
2017-Sep-01 21:30N 16°43' W 061°37'612.4
2017-Sep-01 21:00N 16°46' W 061°31'612.4
2017-Sep-01 20:30N 16°48' W 061°25'612.3
2017-Sep-01 20:00N 16°50' W 061°19'612.4
2017-Sep-01 19:30N 16°54' W 061°14'612.6
2017-Sep-01 19:00N 16°57' W 061°08'612.9
2017-Sep-01 18:30N 17°00' W 061°02'612.9
2017-Sep-01 18:00N 17°04' W 060°57'  
2017-Aug-24 02:42N 34°60' W 015°25'4712.9
2017-Aug-23 23:03N 35°09' W 014°28'012.7
2017-Aug-23 23:01N 35°09' W 014°28'612.9
2017-Aug-23 22:30N 35°11' W 014°20'6812.8
2017-Aug-23 17:12N 35°25' W 012°59'1512.7
2017-Aug-23 16:03N 35°27' W 012°41'413.0
2017-Aug-23 15:47N 35°28' W 012°37'912.8
2017-Aug-23 15:03N 35°30' W 012°26'312.8
2017-Aug-23 14:49N 35°30' W 012°22'412.6
2017-Aug-23 14:29N 35°31' W 012°17'6912.6
2017-Aug-23 09:01N 35°45' W 010°54'312.6
2017-Aug-23 08:46N 35°46' W 010°50'312.7
2017-Aug-23 08:30N 35°47' W 010°46'612.7
2017-Aug-23 08:00N 35°48' W 010°38'1012.6
2017-Aug-23 07:10N 35°50' W 010°26'812.5
2017-Aug-23 06:34N 35°52' W 010°17'212.5
2017-Aug-23 06:23N 35°52' W 010°14'512.5
2017-Aug-23 06:00N 35°53' W 010°08'912.4
2017-Aug-23 05:16N 35°55' W 009°57'312.4
2017-Aug-23 04:59N 35°55' W 009°53'612.8
2017-Aug-23 04:30N 35°55' W 009°45'612.7
2017-Aug-23 04:00N 35°55' W 009°37'712.9
2017-Aug-23 03:28N 35°55' W 009°29'712.9
2017-Aug-23 02:55N 35°55' W 009°20'  
Track history (hours):
 
Tides and Currents Weather Stations Pressure Air Temp Water Temp Dewpoint Dewpoint Depression Visibility Wind Speed Wind Dir Waves Ship Positions

Marlin V

Last reported at 2017-Sep-02 02:48 UTC. Time now 2017-Sep-19 22:40 UTC.
Position N 16°18' W 062°43'.
Warning: this ship's position is 17 days out of date.

Length 199 m; draft 9.6 m.

Type: Cargo ship. MMSI: 357658000.

Date/timePositionNaut miles runAvg speedWind from/ knotsBaromVisibWave heightAir tempDewpointWater temp
2017-Sep-02 02:48N 16°18' W 062°43'412.8
2017-Sep-02 02:30N 16°19' W 062°39'612.7
2017-Sep-02 02:00N 16°22' W 062°33'713.2
2017-Sep-02 01:30N 16°24' W 062°27'813.4
2017-Sep-02 00:53N 16°27' W 062°19'613.2
2017-Sep-02 00:27N 16°30' W 062°13'613.0
2017-Sep-02 00:00N 16°32' W 062°08'612.9
2017-Sep-01 23:30N 16°34' W 062°02'612.8
2017-Sep-01 23:00N 16°37' W 061°55'612.7
2017-Sep-01 22:30N 16°39' W 061°49'612.4
2017-Sep-01 22:00N 16°41' W 061°43'612.4
2017-Sep-01 21:30N 16°43' W 061°37'612.4
2017-Sep-01 21:00N 16°46' W 061°31'612.4
2017-Sep-01 20:30N 16°48' W 061°25'612.3
2017-Sep-01 20:00N 16°50' W 061°19'612.4
2017-Sep-01 19:30N 16°54' W 061°14'612.6
2017-Sep-01 19:00N 16°57' W 061°08'612.9
2017-Sep-01 18:30N 17°00' W 061°02'612.9
2017-Sep-01 18:00N 17°04' W 060°57'  
2017-Aug-24 02:42N 34°60' W 015°25'4712.9
2017-Aug-23 23:03N 35°09' W 014°28'012.7
2017-Aug-23 23:01N 35°09' W 014°28'612.9
2017-Aug-23 22:30N 35°11' W 014°20'6812.8
2017-Aug-23 17:12N 35°25' W 012°59'1512.7
2017-Aug-23 16:03N 35°27' W 012°41'413.0
2017-Aug-23 15:47N 35°28' W 012°37'912.8
2017-Aug-23 15:03N 35°30' W 012°26'312.8
2017-Aug-23 14:49N 35°30' W 012°22'412.6
2017-Aug-23 14:29N 35°31' W 012°17'6912.6
2017-Aug-23 09:01N 35°45' W 010°54'312.6
2017-Aug-23 08:46N 35°46' W 010°50'312.7
2017-Aug-23 08:30N 35°47' W 010°46'612.7
2017-Aug-23 08:00N 35°48' W 010°38'1012.6
2017-Aug-23 07:10N 35°50' W 010°26'812.5
2017-Aug-23 06:34N 35°52' W 010°17'212.5
2017-Aug-23 06:23N 35°52' W 010°14'512.5
2017-Aug-23 06:00N 35°53' W 010°08'912.4
2017-Aug-23 05:16N 35°55' W 009°57'312.4
2017-Aug-23 04:59N 35°55' W 009°53'612.8
2017-Aug-23 04:30N 35°55' W 009°45'612.7
2017-Aug-23 04:00N 35°55' W 009°37'712.9
2017-Aug-23 03:28N 35°55' W 009°29'712.9
2017-Aug-23 02:55N 35°55' W 009°20'  

Dump ship's entire track history